sensor_id;sensor_type;location;lat;lon;timestamp;temperature;humidity
23579;DHT22;11967;50.852;4.400;2022-09-06T00:00:12;23.40;99.90
23579;DHT22;11967;50.852;4.400;2022-09-06T00:02:38;23.40;99.90
23579;DHT22;11967;50.852;4.400;2022-09-06T00:05:04;23.30;99.90
23579;DHT22;11967;50.852;4.400;2022-09-06T00:07:30;23.40;99.90
23579;DHT22;11967;50.852;4.400;2022-09-06T00:09:57;23.40;99.90
23579;DHT22;11967;50.852;4.400;2022-09-06T00:12:23;23.40;99.90
23579;DHT22;11967;50.852;4.400;2022-09-06T00:14:50;23.40;99.90
23579;DHT22;11967;50.852;4.400;2022-09-06T00:17:15;23.40;99.90
23579;DHT22;11967;50.852;4.400;2022-09-06T00:19:41;23.30;99.90
23579;DHT22;11967;50.852;4.400;2022-09-06T00:22:07;23.30;99.90
23579;DHT22;11967;50.852;4.400;2022-09-06T00:24:32;23.30;99.90
23579;DHT22;11967;50.852;4.400;2022-09-06T00:26:59;23.30;99.90
23579;DHT22;11967;50.852;4.400;2022-09-06T00:29:24;23.40;99.90
23579;DHT22;11967;50.852;4.400;2022-09-06T00:31:50;23.40;99.90
23579;DHT22;11967;50.852;4.400;2022-09-06T00:34:15;23.30;99.90
23579;DHT22;11967;50.852;4.400;2022-09-06T00:36:41;23.30;99.90
23579;DHT22;11967;50.852;4.400;2022-09-06T00:39:07;23.20;99.90
23579;DHT22;11967;50.852;4.400;2022-09-06T00:41:32;23.20;99.90
23579;DHT22;11967;50.852;4.400;2022-09-06T00:43:58;23.30;99.90
23579;DHT22;11967;50.852;4.400;2022-09-06T00:46:27;23.30;99.90
23579;DHT22;11967;50.852;4.400;2022-09-06T00:49:01;23.30;99.90
23579;DHT22;11967;50.852;4.400;2022-09-06T00:51:29;23.20;99.90
23579;DHT22;11967;50.852;4.400;2022-09-06T00:53:55;23.20;99.90
23579;DHT22;11967;50.852;4.400;2022-09-06T00:56:22;23.20;99.90
23579;DHT22;11967;50.852;4.400;2022-09-06T00:58:49;23.20;99.90
23579;DHT22;11967;50.852;4.400;2022-09-06T01:01:14;23.20;99.90
23579;DHT22;11967;50.852;4.400;2022-09-06T01:03:40;23.20;99.90
23579;DHT22;11967;50.852;4.400;2022-09-06T01:12:06;23.00;99.90
23579;DHT22;11967;50.852;4.400;2022-09-06T01:14:55;23.00;99.90
23579;DHT22;11967;50.852;4.400;2022-09-06T01:17:59;22.90;99.90
23579;DHT22;11967;50.852;4.400;2022-09-06T01:23:19;22.80;99.90
23579;DHT22;11967;50.852;4.400;2022-09-06T01:28:39;22.80;99.90
23579;DHT22;11967;50.852;4.400;2022-09-06T01:39:26;22.70;99.90
23579;DHT22;11967;50.852;4.400;2022-09-06T01:41:53;22.70;99.90
23579;DHT22;11967;50.852;4.400;2022-09-06T01:44:20;22.60;99.90
23579;DHT22;11967;50.852;4.400;2022-09-06T01:47:08;22.70;99.90
23579;DHT22;11967;50.852;4.400;2022-09-06T01:52:41;22.70;99.90
23579;DHT22;11967;50.852;4.400;2022-09-06T01:55:29;22.50;99.90
23579;DHT22;11967;50.852;4.400;2022-09-06T02:00:58;22.60;99.90
23579;DHT22;11967;50.852;4.400;2022-09-06T02:06:22;22.50;99.90
23579;DHT22;11967;50.852;4.400;2022-09-06T02:08:57;22.40;99.90
23579;DHT22;11967;50.852;4.400;2022-09-06T02:11:28;22.30;99.90
23579;DHT22;11967;50.852;4.400;2022-09-06T02:14:13;22.30;99.90
23579;DHT22;11967;50.852;4.400;2022-09-06T02:16:41;22.30;99.90
23579;DHT22;11967;50.852;4.400;2022-09-06T02:19:17;22.30;99.90
23579;DHT22;11967;50.852;4.400;2022-09-06T02:21:45;22.20;99.90
23579;DHT22;11967;50.852;4.400;2022-09-06T02:24:19;22.40;99.90
23579;DHT22;11967;50.852;4.400;2022-09-06T02:26:47;22.40;99.90
23579;DHT22;11967;50.852;4.400;2022-09-06T02:29:14;22.40;99.90
23579;DHT22;11967;50.852;4.400;2022-09-06T02:31:48;22.30;99.90
23579;DHT22;11967;50.852;4.400;2022-09-06T02:34:16;22.20;99.90
23579;DHT22;11967;50.852;4.400;2022-09-06T02:36:42;22.20;99.90
23579;DHT22;11967;50.852;4.400;2022-09-06T02:39:08;22.20;99.90
23579;DHT22;11967;50.852;4.400;2022-09-06T02:41:34;22.20;99.90
23579;DHT22;11967;50.852;4.400;2022-09-06T02:44:01;22.30;99.90
23579;DHT22;11967;50.852;4.400;2022-09-06T02:46:26;22.20;99.90
23579;DHT22;11967;50.852;4.400;2022-09-06T02:48:52;22.20;99.90
23579;DHT22;11967;50.852;4.400;2022-09-06T02:51:18;22.20;99.90
23579;DHT22;11967;50.852;4.400;2022-09-06T02:53:43;22.20;99.90
23579;DHT22;11967;50.852;4.400;2022-09-06T02:56:09;22.20;99.90
23579;DHT22;11967;50.852;4.400;2022-09-06T02:58:35;22.30;99.90
23579;DHT22;11967;50.852;4.400;2022-09-06T03:01:00;22.20;99.90
23579;DHT22;11967;50.852;4.400;2022-09-06T03:03:26;22.30;99.90
23579;DHT22;11967;50.852;4.400;2022-09-06T03:05:53;22.30;99.90
23579;DHT22;11967;50.852;4.400;2022-09-06T03:08:20;22.20;99.90
23579;DHT22;11967;50.852;4.400;2022-09-06T03:10:50;22.30;99.90
23579;DHT22;11967;50.852;4.400;2022-09-06T03:13:16;22.20;99.90
23579;DHT22;11967;50.852;4.400;2022-09-06T03:15:42;22.10;99.90
23579;DHT22;11967;50.852;4.400;2022-09-06T03:18:08;22.20;99.90
23579;DHT22;11967;50.852;4.400;2022-09-06T03:20:34;22.20;99.90
23579;DHT22;11967;50.852;4.400;2022-09-06T03:22:59;22.30;99.90
23579;DHT22;11967;50.852;4.400;2022-09-06T03:25:25;22.20;99.90
23579;DHT22;11967;50.852;4.400;2022-09-06T03:27:51;22.20;99.90
23579;DHT22;11967;50.852;4.400;2022-09-06T03:30:17;22.20;99.90
23579;DHT22;11967;50.852;4.400;2022-09-06T03:32:43;22.10;99.90
23579;DHT22;11967;50.852;4.400;2022-09-06T03:35:09;22.10;99.90
23579;DHT22;11967;50.852;4.400;2022-09-06T03:37:36;22.00;99.90
23579;DHT22;11967;50.852;4.400;2022-09-06T03:40:03;21.90;99.90
23579;DHT22;11967;50.852;4.400;2022-09-06T03:42:30;21.90;99.90
23579;DHT22;11967;50.852;4.400;2022-09-06T03:44:56;22.00;99.90
23579;DHT22;11967;50.852;4.400;2022-09-06T03:47:21;22.00;99.90
23579;DHT22;11967;50.852;4.400;2022-09-06T03:49:47;22.10;99.90
23579;DHT22;11967;50.852;4.400;2022-09-06T03:52:13;22.10;99.90
23579;DHT22;11967;50.852;4.400;2022-09-06T03:54:39;22.10;99.90
23579;DHT22;11967;50.852;4.400;2022-09-06T03:57:05;22.10;99.90
23579;DHT22;11967;50.852;4.400;2022-09-06T03:59:31;22.10;99.90
23579;DHT22;11967;50.852;4.400;2022-09-06T04:01:57;22.10;99.90
23579;DHT22;11967;50.852;4.400;2022-09-06T04:04:22;22.20;99.90
23579;DHT22;11967;50.852;4.400;2022-09-06T04:06:48;22.10;99.90
23579;DHT22;11967;50.852;4.400;2022-09-06T04:09:14;22.10;99.90
23579;DHT22;11967;50.852;4.400;2022-09-06T04:11:39;22.10;99.90
23579;DHT22;11967;50.852;4.400;2022-09-06T04:14:05;22.10;99.90
23579;DHT22;11967;50.852;4.400;2022-09-06T04:16:31;22.10;99.90
23579;DHT22;11967;50.852;4.400;2022-09-06T04:18:56;22.20;99.90
23579;DHT22;11967;50.852;4.400;2022-09-06T04:21:24;22.20;99.90
23579;DHT22;11967;50.852;4.400;2022-09-06T04:23:50;22.30;99.90
23579;DHT22;11967;50.852;4.400;2022-09-06T04:26:16;22.20;99.90
23579;DHT22;11967;50.852;4.400;2022-09-06T04:28:42;22.10;99.90
23579;DHT22;11967;50.852;4.400;2022-09-06T04:31:07;22.20;99.90
23579;DHT22;11967;50.852;4.400;2022-09-06T04:33:34;22.20;99.90
23579;DHT22;11967;50.852;4.400;2022-09-06T04:36:02;22.10;99.90
23579;DHT22;11967;50.852;4.400;2022-09-06T04:38:29;22.10;99.90
23579;DHT22;11967;50.852;4.400;2022-09-06T04:40:56;22.20;99.90
23579;DHT22;11967;50.852;4.400;2022-09-06T04:43:22;22.10;99.90
23579;DHT22;11967;50.852;4.400;2022-09-06T04:45:47;22.00;99.90
23579;DHT22;11967;50.852;4.400;2022-09-06T04:48:13;22.00;99.90
23579;DHT22;11967;50.852;4.400;2022-09-06T04:50:39;22.00;99.90
23579;DHT22;11967;50.852;4.400;2022-09-06T04:53:05;22.10;99.90
23579;DHT22;11967;50.852;4.400;2022-09-06T04:55:31;22.00;99.90
23579;DHT22;11967;50.852;4.400;2022-09-06T04:57:59;22.00;99.90
23579;DHT22;11967;50.852;4.400;2022-09-06T05:00:29;22.00;99.90
23579;DHT22;11967;50.852;4.400;2022-09-06T05:02:56;21.90;99.90
23579;DHT22;11967;50.852;4.400;2022-09-06T05:05:22;21.90;99.90
23579;DHT22;11967;50.852;4.400;2022-09-06T05:07:51;21.90;99.90
23579;DHT22;11967;50.852;4.400;2022-09-06T05:10:17;21.90;99.90
23579;DHT22;11967;50.852;4.400;2022-09-06T05:12:42;21.90;99.90
23579;DHT22;11967;50.852;4.400;2022-09-06T05:15:08;21.80;99.90
23579;DHT22;11967;50.852;4.400;2022-09-06T05:17:34;21.90;99.90
23579;DHT22;11967;50.852;4.400;2022-09-06T05:20:00;21.90;99.90
23579;DHT22;11967;50.852;4.400;2022-09-06T05:22:25;21.80;99.90
23579;DHT22;11967;50.852;4.400;2022-09-06T05:24:51;21.80;99.90
23579;DHT22;11967;50.852;4.400;2022-09-06T05:27:17;21.80;99.90
23579;DHT22;11967;50.852;4.400;2022-09-06T05:29:42;21.70;99.90
23579;DHT22;11967;50.852;4.400;2022-09-06T05:32:08;21.70;99.90
23579;DHT22;11967;50.852;4.400;2022-09-06T05:34:33;21.70;99.90
23579;DHT22;11967;50.852;4.400;2022-09-06T05:36:59;21.70;99.90
23579;DHT22;11967;50.852;4.400;2022-09-06T05:39:25;21.70;99.90
23579;DHT22;11967;50.852;4.400;2022-09-06T05:41:50;21.70;99.90
23579;DHT22;11967;50.852;4.400;2022-09-06T05:44:16;21.80;99.90
23579;DHT22;11967;50.852;4.400;2022-09-06T05:46:43;21.80;99.90
23579;DHT22;11967;50.852;4.400;2022-09-06T05:49:10;21.70;99.90
23579;DHT22;11967;50.852;4.400;2022-09-06T05:51:36;21.60;99.90
23579;DHT22;11967;50.852;4.400;2022-09-06T05:54:02;21.70;99.90
23579;DHT22;11967;50.852;4.400;2022-09-06T05:56:28;21.60;99.90
23579;DHT22;11967;50.852;4.400;2022-09-06T05:58:53;21.70;99.90
23579;DHT22;11967;50.852;4.400;2022-09-06T06:01:24;21.70;99.90
23579;DHT22;11967;50.852;4.400;2022-09-06T06:03:55;21.70;99.90
23579;DHT22;11967;50.852;4.400;2022-09-06T06:06:22;21.70;99.90
23579;DHT22;11967;50.852;4.400;2022-09-06T06:08:49;21.60;99.90
23579;DHT22;11967;50.852;4.400;2022-09-06T06:11:16;21.70;99.90
23579;DHT22;11967;50.852;4.400;2022-09-06T06:13:42;21.80;99.90
23579;DHT22;11967;50.852;4.400;2022-09-06T06:16:13;21.70;99.90
23579;DHT22;11967;50.852;4.400;2022-09-06T06:18:39;21.80;99.90
23579;DHT22;11967;50.852;4.400;2022-09-06T06:21:18;21.90;99.90
23579;DHT22;11967;50.852;4.400;2022-09-06T06:23:47;22.00;99.90
23579;DHT22;11967;50.852;4.400;2022-09-06T06:26:14;21.90;99.90
23579;DHT22;11967;50.852;4.400;2022-09-06T06:28:40;21.90;99.90
23579;DHT22;11967;50.852;4.400;2022-09-06T06:31:07;21.80;99.90
23579;DHT22;11967;50.852;4.400;2022-09-06T06:33:33;21.80;99.90
23579;DHT22;11967;50.852;4.400;2022-09-06T06:38:38;21.90;99.90
23579;DHT22;11967;50.852;4.400;2022-09-06T06:41:05;21.90;99.90
23579;DHT22;11967;50.852;4.400;2022-09-06T06:43:32;21.90;99.90
23579;DHT22;11967;50.852;4.400;2022-09-06T06:46:08;22.00;99.90
23579;DHT22;11967;50.852;4.400;2022-09-06T06:48:38;22.10;99.90
23579;DHT22;11967;50.852;4.400;2022-09-06T06:51:07;22.10;99.90
23579;DHT22;11967;50.852;4.400;2022-09-06T06:53:34;22.10;99.90
23579;DHT22;11967;50.852;4.400;2022-09-06T06:55:59;22.00;99.90
23579;DHT22;11967;50.852;4.400;2022-09-06T06:58:25;22.10;99.90
23579;DHT22;11967;50.852;4.400;2022-09-06T07:00:51;22.10;99.90
23579;DHT22;11967;50.852;4.400;2022-09-06T07:03:17;22.10;99.90
23579;DHT22;11967;50.852;4.400;2022-09-06T07:05:44;22.10;99.90
23579;DHT22;11967;50.852;4.400;2022-09-06T07:08:12;22.10;99.90
23579;DHT22;11967;50.852;4.400;2022-09-06T07:10:38;22.10;99.90
23579;DHT22;11967;50.852;4.400;2022-09-06T07:13:04;22.10;99.90
23579;DHT22;11967;50.852;4.400;2022-09-06T07:15:29;22.10;99.90
23579;DHT22;11967;50.852;4.400;2022-09-06T07:17:55;22.10;99.90
23579;DHT22;11967;50.852;4.400;2022-09-06T07:20:22;22.10;99.90
23579;DHT22;11967;50.852;4.400;2022-09-06T07:23:01;22.20;99.90
23579;DHT22;11967;50.852;4.400;2022-09-06T07:25:27;22.10;99.90
23579;DHT22;11967;50.852;4.400;2022-09-06T07:28:01;22.10;99.90
23579;DHT22;11967;50.852;4.400;2022-09-06T07:30:30;22.10;99.90
23579;DHT22;11967;50.852;4.400;2022-09-06T07:32:57;22.20;99.90
23579;DHT22;11967;50.852;4.400;2022-09-06T07:35:25;22.10;99.90
23579;DHT22;11967;50.852;4.400;2022-09-06T07:37:52;22.10;99.90
23579;DHT22;11967;50.852;4.400;2022-09-06T07:40:18;22.20;99.90
23579;DHT22;11967;50.852;4.400;2022-09-06T07:42:44;22.20;99.90
23579;DHT22;11967;50.852;4.400;2022-09-06T07:45:09;22.20;99.90
23579;DHT22;11967;50.852;4.400;2022-09-06T07:47:35;22.20;99.90
23579;DHT22;11967;50.852;4.400;2022-09-06T07:50:01;22.30;99.90
23579;DHT22;11967;50.852;4.400;2022-09-06T07:52:26;22.30;99.90
23579;DHT22;11967;50.852;4.400;2022-09-06T07:54:52;22.40;99.90
23579;DHT22;11967;50.852;4.400;2022-09-06T07:57:18;22.40;99.90
23579;DHT22;11967;50.852;4.400;2022-09-06T07:59:43;22.40;99.90
23579;DHT22;11967;50.852;4.400;2022-09-06T08:02:09;22.40;99.90
23579;DHT22;11967;50.852;4.400;2022-09-06T08:04:35;22.40;99.90
23579;DHT22;11967;50.852;4.400;2022-09-06T08:07:00;22.40;99.90
23579;DHT22;11967;50.852;4.400;2022-09-06T08:09:26;22.40;99.90
23579;DHT22;11967;50.852;4.400;2022-09-06T08:11:52;22.60;99.90
23579;DHT22;11967;50.852;4.400;2022-09-06T08:14:18;22.60;99.90
23579;DHT22;11967;50.852;4.400;2022-09-06T08:16:44;22.70;99.90
23579;DHT22;11967;50.852;4.400;2022-09-06T08:19:10;22.60;99.90
23579;DHT22;11967;50.852;4.400;2022-09-06T08:21:37;22.70;99.90
23579;DHT22;11967;50.852;4.400;2022-09-06T08:24:07;22.60;99.90
23579;DHT22;11967;50.852;4.400;2022-09-06T08:26:35;22.70;99.90
23579;DHT22;11967;50.852;4.400;2022-09-06T08:29:05;22.70;99.90
23579;DHT22;11967;50.852;4.400;2022-09-06T08:31:32;22.80;99.90
23579;DHT22;11967;50.852;4.400;2022-09-06T08:33:59;22.90;99.90
23579;DHT22;11967;50.852;4.400;2022-09-06T08:36:25;22.90;99.90
23579;DHT22;11967;50.852;4.400;2022-09-06T08:38:54;23.00;99.90
23579;DHT22;11967;50.852;4.400;2022-09-06T08:41:48;23.10;99.90
23579;DHT22;11967;50.852;4.400;2022-09-06T08:44:32;23.10;99.90
23579;DHT22;11967;50.852;4.400;2022-09-06T08:47:16;23.20;99.90
23579;DHT22;11967;50.852;4.400;2022-09-06T08:50:03;23.40;99.90
23579;DHT22;11967;50.852;4.400;2022-09-06T08:55:37;23.40;99.90
23579;DHT22;11967;50.852;4.400;2022-09-06T09:00:38;23.40;99.90
23579;DHT22;11967;50.852;4.400;2022-09-06T09:03:25;23.50;99.90
23579;DHT22;11967;50.852;4.400;2022-09-06T09:05:55;23.50;99.90
23579;DHT22;11967;50.852;4.400;2022-09-06T09:11:17;23.50;99.90
23579;DHT22;11967;50.852;4.400;2022-09-06T09:16:15;23.70;99.90
23579;DHT22;11967;50.852;4.400;2022-09-06T09:18:44;23.70;99.90
23579;DHT22;11967;50.852;4.400;2022-09-06T09:21:11;23.80;99.90
23579;DHT22;11967;50.852;4.400;2022-09-06T09:23:36;23.90;99.90
23579;DHT22;11967;50.852;4.400;2022-09-06T09:26:05;23.90;99.90
23579;DHT22;11967;50.852;4.400;2022-09-06T09:28:32;23.90;99.90
23579;DHT22;11967;50.852;4.400;2022-09-06T09:30:58;24.10;99.90
23579;DHT22;11967;50.852;4.400;2022-09-06T09:33:28;24.20;99.90
23579;DHT22;11967;50.852;4.400;2022-09-06T09:35:57;24.30;99.90
23579;DHT22;11967;50.852;4.400;2022-09-06T09:38:29;24.40;99.90
23579;DHT22;11967;50.852;4.400;2022-09-06T09:41:05;24.50;99.90
23579;DHT22;11967;50.852;4.400;2022-09-06T09:43:37;24.60;99.90
23579;DHT22;11967;50.852;4.400;2022-09-06T09:46:16;24.50;99.90
23579;DHT22;11967;50.852;4.400;2022-09-06T09:52:11;24.50;99.90
23579;DHT22;11967;50.852;4.400;2022-09-06T09:54:40;24.70;99.90
23579;DHT22;11967;50.852;4.400;2022-09-06T09:57:08;24.80;99.90
23579;DHT22;11967;50.852;4.400;2022-09-06T09:59:46;24.90;99.90
23579;DHT22;11967;50.852;4.400;2022-09-06T10:02:27;25.00;99.90
23579;DHT22;11967;50.852;4.400;2022-09-06T10:07:45;25.10;99.90
23579;DHT22;11967;50.852;4.400;2022-09-06T10:10:22;25.20;99.90
23579;DHT22;11967;50.852;4.400;2022-09-06T10:12:48;25.20;99.90
23579;DHT22;11967;50.852;4.400;2022-09-06T10:15:38;25.30;99.90
23579;DHT22;11967;50.852;4.400;2022-09-06T10:18:04;25.40;99.90
23579;DHT22;11967;50.852;4.400;2022-09-06T10:20:52;25.40;99.90
23579;DHT22;11967;50.852;4.400;2022-09-06T10:26:34;25.50;99.90
23579;DHT22;11967;50.852;4.400;2022-09-06T10:29:05;25.60;99.90
23579;DHT22;11967;50.852;4.400;2022-09-06T10:39:52;25.80;99.90
23579;DHT22;11967;50.852;4.400;2022-09-06T10:42:34;25.80;99.90
23579;DHT22;11967;50.852;4.400;2022-09-06T10:48:08;25.90;99.90
23579;DHT22;11967;50.852;4.400;2022-09-06T10:50:47;25.90;99.90
23579;DHT22;11967;50.852;4.400;2022-09-06T10:58:58;26.30;99.90
23579;DHT22;11967;50.852;4.400;2022-09-06T11:01:40;26.40;99.90
23579;DHT22;11967;50.852;4.400;2022-09-06T11:04:10;26.40;99.90
23579;DHT22;11967;50.852;4.400;2022-09-06T11:06:48;26.50;99.90
23579;DHT22;11967;50.852;4.400;2022-09-06T11:12:10;26.70;99.90
23579;DHT22;11967;50.852;4.400;2022-09-06T11:14:37;26.90;99.90
23579;DHT22;11967;50.852;4.400;2022-09-06T11:17:14;26.90;99.90
23579;DHT22;11967;50.852;4.400;2022-09-06T11:28:04;27.00;99.90
23579;DHT22;11967;50.852;4.400;2022-09-06T11:30:34;27.10;99.90
23579;DHT22;11967;50.852;4.400;2022-09-06T11:33:11;27.10;99.90
23579;DHT22;11967;50.852;4.400;2022-09-06T11:35:41;27.10;99.90
23579;DHT22;11967;50.852;4.400;2022-09-06T11:38:16;27.10;99.90
23579;DHT22;11967;50.852;4.400;2022-09-06T11:40:55;27.20;99.90
23579;DHT22;11967;50.852;4.400;2022-09-06T11:49:04;27.50;99.90
23579;DHT22;11967;50.852;4.400;2022-09-06T11:51:39;27.60;99.90
23579;DHT22;11967;50.852;4.400;2022-09-06T11:56:50;27.60;99.90
23579;DHT22;11967;50.852;4.400;2022-09-06T12:02:06;27.70;99.90
23579;DHT22;11967;50.852;4.400;2022-09-06T12:07:29;28.00;99.90
23579;DHT22;11967;50.852;4.400;2022-09-06T12:09:55;28.00;99.90
23579;DHT22;11967;50.852;4.400;2022-09-06T12:12:45;28.00;99.90
23579;DHT22;11967;50.852;4.400;2022-09-06T12:15:30;28.00;99.90
23579;DHT22;11967;50.852;4.400;2022-09-06T12:17:57;28.00;99.90
23579;DHT22;11967;50.852;4.400;2022-09-06T12:23:39;28.20;99.90
23579;DHT22;11967;50.852;4.400;2022-09-06T12:26:06;28.20;99.90
23579;DHT22;11967;50.852;4.400;2022-09-06T12:28:50;28.20;99.90
23579;DHT22;11967;50.852;4.400;2022-09-06T12:31:38;28.30;99.90
23579;DHT22;11967;50.852;4.400;2022-09-06T12:34:08;28.40;99.70
23579;DHT22;11967;50.852;4.400;2022-09-06T12:36:34;28.30;99.30
23579;DHT22;11967;50.852;4.400;2022-09-06T12:39:03;28.40;99.50
23579;DHT22;11967;50.852;4.400;2022-09-06T12:41:38;28.40;99.30
23579;DHT22;11967;50.852;4.400;2022-09-06T12:44:05;28.50;99.20
23579;DHT22;11967;50.852;4.400;2022-09-06T12:46:32;28.50;98.70
23579;DHT22;11967;50.852;4.400;2022-09-06T12:49:08;28.40;98.50
23579;DHT22;11967;50.852;4.400;2022-09-06T12:51:35;28.50;98.30
23579;DHT22;11967;50.852;4.400;2022-09-06T12:54:17;28.70;97.90
23579;DHT22;11967;50.852;4.400;2022-09-06T12:56:43;28.70;97.60
23579;DHT22;11967;50.852;4.400;2022-09-06T12:59:19;28.80;97.30
23579;DHT22;11967;50.852;4.400;2022-09-06T13:02:04;28.70;97.20
23579;DHT22;11967;50.852;4.400;2022-09-06T13:04:32;28.80;97.40
23579;DHT22;11967;50.852;4.400;2022-09-06T13:07:02;28.80;97.50
23579;DHT22;11967;50.852;4.400;2022-09-06T13:09:29;28.80;97.30
23579;DHT22;11967;50.852;4.400;2022-09-06T13:12:24;28.90;97.40
23579;DHT22;11967;50.852;4.400;2022-09-06T13:14:54;28.90;97.10
23579;DHT22;11967;50.852;4.400;2022-09-06T13:17:28;28.80;96.40
23579;DHT22;11967;50.852;4.400;2022-09-06T13:19:54;28.80;96.40
23579;DHT22;11967;50.852;4.400;2022-09-06T13:22:44;28.80;96.20
23579;DHT22;11967;50.852;4.400;2022-09-06T13:25:28;28.80;96.50
23579;DHT22;11967;50.852;4.400;2022-09-06T13:27:55;28.90;96.30
23579;DHT22;11967;50.852;4.400;2022-09-06T13:30:34;29.00;95.90
23579;DHT22;11967;50.852;4.400;2022-09-06T13:33:02;29.00;95.40
23579;DHT22;11967;50.852;4.400;2022-09-06T13:35:34;29.10;95.10
23579;DHT22;11967;50.852;4.400;2022-09-06T13:38:20;29.10;94.80
23579;DHT22;11967;50.852;4.400;2022-09-06T13:40:48;29.10;94.80
23579;DHT22;11967;50.852;4.400;2022-09-06T13:43:20;29.30;94.90
23579;DHT22;11967;50.852;4.400;2022-09-06T13:45:46;29.50;94.20
23579;DHT22;11967;50.852;4.400;2022-09-06T13:48:12;29.50;94.00
23579;DHT22;11967;50.852;4.400;2022-09-06T13:50:40;29.40;93.60
23579;DHT22;11967;50.852;4.400;2022-09-06T13:53:06;29.10;93.60
23579;DHT22;11967;50.852;4.400;2022-09-06T13:55:32;29.00;93.70
23579;DHT22;11967;50.852;4.400;2022-09-06T13:57:57;29.00;93.40
23579;DHT22;11967;50.852;4.400;2022-09-06T14:00:23;29.00;93.10
23579;DHT22;11967;50.852;4.400;2022-09-06T14:02:49;29.00;93.50
23579;DHT22;11967;50.852;4.400;2022-09-06T14:05:15;29.10;93.00
23579;DHT22;11967;50.852;4.400;2022-09-06T14:07:43;29.20;92.10
23579;DHT22;11967;50.852;4.400;2022-09-06T14:10:08;29.00;91.90
23579;DHT22;11967;50.852;4.400;2022-09-06T14:12:36;29.00;92.00
23579;DHT22;11967;50.852;4.400;2022-09-06T14:15:03;29.10;91.50
23579;DHT22;11967;50.852;4.400;2022-09-06T14:17:28;29.20;91.50
23579;DHT22;11967;50.852;4.400;2022-09-06T14:19:54;29.30;91.80
23579;DHT22;11967;50.852;4.400;2022-09-06T14:22:20;29.20;91.70
23579;DHT22;11967;50.852;4.400;2022-09-06T14:24:46;29.10;91.80
23579;DHT22;11967;50.852;4.400;2022-09-06T14:27:13;29.10;91.90
23579;DHT22;11967;50.852;4.400;2022-09-06T14:29:39;29.20;91.30
23579;DHT22;11967;50.852;4.400;2022-09-06T14:32:05;29.00;91.10
23579;DHT22;11967;50.852;4.400;2022-09-06T14:34:31;29.00;91.30
23579;DHT22;11967;50.852;4.400;2022-09-06T14:36:57;28.80;91.40
23579;DHT22;11967;50.852;4.400;2022-09-06T14:39:22;28.70;91.60
23579;DHT22;11967;50.852;4.400;2022-09-06T14:41:48;28.70;92.20
23579;DHT22;11967;50.852;4.400;2022-09-06T14:44:14;28.70;91.90
23579;DHT22;11967;50.852;4.400;2022-09-06T14:46:40;28.60;91.70
23579;DHT22;11967;50.852;4.400;2022-09-06T14:49:08;28.60;91.50
23579;DHT22;11967;50.852;4.400;2022-09-06T14:51:36;28.60;91.40
23579;DHT22;11967;50.852;4.400;2022-09-06T14:54:09;28.50;91.20
23579;DHT22;11967;50.852;4.400;2022-09-06T14:56:35;28.50;91.20
23579;DHT22;11967;50.852;4.400;2022-09-06T14:59:02;28.50;91.50
23579;DHT22;11967;50.852;4.400;2022-09-06T15:01:30;28.40;91.40
23579;DHT22;11967;50.852;4.400;2022-09-06T15:04:00;28.40;91.50
23579;DHT22;11967;50.852;4.400;2022-09-06T15:06:31;28.30;91.70
23579;DHT22;11967;50.852;4.400;2022-09-06T15:08:58;28.30;91.80
23579;DHT22;11967;50.852;4.400;2022-09-06T15:13:55;28.30;92.20
23579;DHT22;11967;50.852;4.400;2022-09-06T15:16:20;28.30;92.40
23579;DHT22;11967;50.852;4.400;2022-09-06T15:18:46;28.20;92.50
23579;DHT22;11967;50.852;4.400;2022-09-06T15:21:14;28.20;92.50
23579;DHT22;11967;50.852;4.400;2022-09-06T15:23:40;28.20;92.70
23579;DHT22;11967;50.852;4.400;2022-09-06T15:26:07;28.20;92.60
23579;DHT22;11967;50.852;4.400;2022-09-06T15:28:37;28.20;92.50
23579;DHT22;11967;50.852;4.400;2022-09-06T15:31:04;28.10;92.50
23579;DHT22;11967;50.852;4.400;2022-09-06T15:33:31;28.10;92.70
23579;DHT22;11967;50.852;4.400;2022-09-06T15:35:58;28.20;92.80
23579;DHT22;11967;50.852;4.400;2022-09-06T15:38:34;28.10;92.80
23579;DHT22;11967;50.852;4.400;2022-09-06T15:41:08;28.10;92.90
23579;DHT22;11967;50.852;4.400;2022-09-06T15:43:35;28.10;93.00
23579;DHT22;11967;50.852;4.400;2022-09-06T15:46:03;28.10;93.10
23579;DHT22;11967;50.852;4.400;2022-09-06T15:48:28;28.10;93.60
23579;DHT22;11967;50.852;4.400;2022-09-06T15:51:03;28.20;94.00
23579;DHT22;11967;50.852;4.400;2022-09-06T15:53:29;28.20;94.50
23579;DHT22;11967;50.852;4.400;2022-09-06T15:55:58;28.20;94.70
23579;DHT22;11967;50.852;4.400;2022-09-06T15:58:27;28.20;94.70
23579;DHT22;11967;50.852;4.400;2022-09-06T16:03:25;28.20;94.80
23579;DHT22;11967;50.852;4.400;2022-09-06T16:05:51;28.20;94.60
23579;DHT22;11967;50.852;4.400;2022-09-06T16:08:17;28.20;94.70
23579;DHT22;11967;50.852;4.400;2022-09-06T16:10:43;28.20;94.70
23579;DHT22;11967;50.852;4.400;2022-09-06T16:13:09;28.20;94.70
23579;DHT22;11967;50.852;4.400;2022-09-06T16:15:34;28.20;94.50
23579;DHT22;11967;50.852;4.400;2022-09-06T16:18:00;28.10;94.60
23579;DHT22;11967;50.852;4.400;2022-09-06T16:20:30;28.10;94.80
23579;DHT22;11967;50.852;4.400;2022-09-06T16:22:57;28.10;94.90
23579;DHT22;11967;50.852;4.400;2022-09-06T16:25:22;28.10;94.80
23579;DHT22;11967;50.852;4.400;2022-09-06T16:27:48;28.10;94.80
23579;DHT22;11967;50.852;4.400;2022-09-06T16:30:14;28.00;94.80
23579;DHT22;11967;50.852;4.400;2022-09-06T16:32:39;28.00;94.80
23579;DHT22;11967;50.852;4.400;2022-09-06T16:35:05;28.10;94.90
23579;DHT22;11967;50.852;4.400;2022-09-06T16:37:31;28.10;94.80
23579;DHT22;11967;50.852;4.400;2022-09-06T16:39:57;28.10;94.60
23579;DHT22;11967;50.852;4.400;2022-09-06T16:42:23;28.20;94.50
23579;DHT22;11967;50.852;4.400;2022-09-06T16:44:49;28.20;94.40
23579;DHT22;11967;50.852;4.400;2022-09-06T16:47:14;28.30;94.40
23579;DHT22;11967;50.852;4.400;2022-09-06T16:49:40;28.30;94.40
23579;DHT22;11967;50.852;4.400;2022-09-06T16:52:06;28.30;94.50
23579;DHT22;11967;50.852;4.400;2022-09-06T16:54:31;28.30;94.60
23579;DHT22;11967;50.852;4.400;2022-09-06T16:56:57;28.30;94.80
23579;DHT22;11967;50.852;4.400;2022-09-06T16:59:23;28.30;94.80
23579;DHT22;11967;50.852;4.400;2022-09-06T17:01:48;28.20;95.00
23579;DHT22;11967;50.852;4.400;2022-09-06T17:04:15;28.20;95.20
23579;DHT22;11967;50.852;4.400;2022-09-06T17:06:41;28.20;95.40
23579;DHT22;11967;50.852;4.400;2022-09-06T17:09:15;28.20;95.60
23579;DHT22;11967;50.852;4.400;2022-09-06T17:11:43;28.10;95.80
23579;DHT22;11967;50.852;4.400;2022-09-06T17:14:09;28.10;95.80
23579;DHT22;11967;50.852;4.400;2022-09-06T17:16:35;28.10;96.00
23579;DHT22;11967;50.852;4.400;2022-09-06T17:19:19;28.10;96.10
23579;DHT22;11967;50.852;4.400;2022-09-06T17:21:45;28.10;96.20